Time;durP1;ratioP1;P1;durP2;ratioP2;P2;SDS_P1;SDS_P2;PMS_P1;PMS_P2;Temp;Humidity;BMP_temperature;BMP_pressure;BME280_temperature;BME280_humidity;BME280_pressure;Samples;Min_cycle;Max_cycle;Signal;HPM_P1;HPM_P2
2021/11/20 00:00:17;;;;;;;9.00;5.35;;;;;;;11.22;90.66;102809.25;701991;28;898;-63
2021/11/20 00:00:40;;;;;;;9.60;5.47;;;;;;;11.22;90.49;102813.63;702211;28;909;-63
2021/11/20 00:01:07;;;;;;;9.20;5.22;;;;;;;11.23;90.51;102812.78;702067;28;1530;-63
2021/11/20 00:01:30;;;;;;;7.90;5.45;;;;;;;11.22;90.61;102814.53;702125;28;819;-63
2021/11/20 00:01:52;;;;;;;9.85;5.53;;;;;;;11.21;90.95;102806.63;702209;28;906;-63
2021/11/20 00:02:16;;;;;;;9.15;5.43;;;;;;;11.19;91.01;102809.31;702188;28;875;-62
2021/11/20 00:02:37;;;;;;;8.85;5.45;;;;;;;11.20;90.98;102816.31;702224;28;880;-63
2021/11/20 00:02:57;;;;;;;9.83;5.73;;;;;;;11.19;90.93;102814.59;702258;28;815;-63
2021/11/20 00:03:17;;;;;;;9.85;5.70;;;;;;;11.21;90.93;102810.13;701930;28;1141;-63
2021/11/20 00:03:43;;;;;;;10.07;5.50;;;;;;;11.19;90.96;102806.66;702216;28;862;-63
2021/11/20 00:04:05;;;;;;;8.00;5.43;;;;;;;11.19;90.86;102798.75;702127;28;938;-62
2021/11/20 00:04:25;;;;;;;8.02;5.45;;;;;;;11.19;90.83;102804.03;702062;28;1009;-63
2021/11/20 00:04:46;;;;;;;9.05;5.45;;;;;;;11.19;90.62;102808.44;702309;28;821;-63
2021/11/20 00:05:10;;;;;;;10.38;5.50;;;;;;;11.17;90.78;102811.94;702184;28;910;-63
2021/11/20 00:05:34;;;;;;;8.07;5.32;;;;;;;11.18;90.77;102812.81;702180;28;885;-63
2021/11/20 00:05:55;;;;;;;8.65;5.57;;;;;;;11.16;91.01;102798.78;702176;28;890;-63
2021/11/20 00:06:22;;;;;;;9.93;5.38;;;;;;;11.15;90.80;102811.09;702075;28;835;-63
2021/11/20 00:06:45;;;;;;;9.88;5.55;;;;;;;11.21;90.67;102807.50;702129;28;1028;-63
2021/11/20 00:07:05;;;;;;;8.68;5.60;;;;;;;11.19;90.39;102804.03;701920;28;908;-63
2021/11/20 00:07:26;;;;;;;8.40;5.37;;;;;;;11.18;90.80;102802.25;701951;28;922;-63
2021/11/20 00:07:49;;;;;;;9.30;5.50;;;;;;;11.16;90.51;102807.56;701649;28;930;-63
2021/11/20 00:08:10;;;;;;;8.88;5.50;;;;;;;11.14;90.93;102805.84;701816;28;843;-63
2021/11/20 00:08:30;;;;;;;9.07;5.32;;;;;;;11.14;90.77;102800.56;701865;28;1029;-62
2021/11/20 00:08:51;;;;;;;9.00;5.27;;;;;;;11.13;90.87;102801.47;701924;28;842;-62
2021/11/20 00:09:17;;;;;;;8.50;5.35;;;;;;;11.11;91.12;102800.59;702239;28;820;-63
2021/11/20 00:09:38;;;;;;;9.00;5.60;;;;;;;11.15;90.88;102797.91;702107;28;832;-63
2021/11/20 00:09:58;;;;;;;9.32;5.60;;;;;;;11.14;90.70;102796.16;702146;28;851;-63
2021/11/20 00:10:25;;;;;;;8.73;5.40;;;;;;;11.19;90.35;102809.31;701986;28;1021;-63
2021/11/20 00:10:49;;;;;;;9.00;5.10;;;;;;;11.17;89.83;102798.75;701931;28;1275;-63
2021/11/20 00:11:11;;;;;;;8.40;5.30;;;;;;;11.17;89.79;102800.53;702122;28;1029;-63
2021/11/20 00:11:36;;;;;;;7.80;5.30;;;;;;;11.16;90.01;102796.13;702100;28;946;-63
2021/11/20 00:12:04;;;;;;;7.53;5.38;;;;;;;11.16;90.26;102798.78;701878;28;1977;-63
2021/11/20 00:12:30;;;;;;;8.93;5.40;;;;;;;11.16;90.27;102804.06;702129;28;851;-64
2021/11/20 00:12:52;;;;;;;8.20;5.32;;;;;;;11.13;90.23;102798.81;701937;28;1285;-63
2021/11/20 00:13:13;;;;;;;7.93;5.28;;;;;;;11.13;89.96;102798.81;702191;28;1092;-62
2021/11/20 00:13:33;;;;;;;7.72;5.50;;;;;;;11.12;90.30;102802.38;702033;28;1080;-63
2021/11/20 00:13:55;;;;;;;9.27;5.50;;;;;;;11.13;90.12;102799.69;702164;28;890;-63
2021/11/20 00:14:20;;;;;;;8.98;5.40;;;;;;;11.12;90.22;102802.38;702241;28;942;-63
2021/11/20 00:14:43;;;;;;;8.30;5.30;;;;;;;11.15;90.35;102794.41;701942;28;1257;-63
2021/11/20 00:15:06;;;;;;;8.70;5.28;;;;;;;11.17;90.13;102795.25;702164;28;1190;-63
2021/11/20 00:15:31;;;;;;;8.60;5.43;;;;;;;11.16;90.13;102804.06;701975;28;1522;-63
2021/11/20 00:15:53;;;;;;;8.35;5.60;;;;;;;11.15;89.99;102797.03;701954;28;970;-63
2021/11/20 00:16:14;;;;;;;8.65;5.50;;;;;;;11.17;89.89;102801.38;702241;28;891;-62
2021/11/20 00:16:34;;;;;;;7.90;5.37;;;;;;;11.19;90.15;102800.50;702033;28;1182;-62
2021/11/20 00:16:56;;;;;;;8.40;5.20;;;;;;;11.17;89.91;102803.16;702256;28;848;-63
2021/11/20 00:17:17;;;;;;;9.18;5.40;;;;;;;11.16;90.31;102801.41;702078;28;1546;-63
2021/11/20 00:17:37;;;;;;;9.82;5.53;;;;;;;11.13;90.38;102801.47;702255;28;859;-63
2021/11/20 00:17:59;;;;;;;9.20;5.57;;;;;;;11.11;90.38;102801.50;701755;28;894;-62
2021/11/20 00:18:20;;;;;;;10.45;6.03;;;;;;;11.16;90.14;102802.28;702142;28;970;-62
2021/11/20 00:18:42;;;;;;;9.70;5.40;;;;;;;11.15;90.20;102802.31;702088;28;879;-63
2021/11/20 00:19:03;;;;;;;8.30;5.60;;;;;;;11.15;90.21;102799.69;702266;28;1010;-62
2021/11/20 00:19:24;;;;;;;8.05;5.60;;;;;;;11.12;90.44;102808.50;702147;28;986;-62
2021/11/20 00:19:45;;;;;;;9.07;5.53;;;;;;;11.18;90.05;102802.25;702081;28;916;-62
2021/11/20 00:20:10;;;;;;;7.68;5.75;;;;;;;11.17;90.07;102800.53;702230;28;875;-63
2021/11/20 00:20:33;;;;;;;9.00;5.80;;;;;;;11.16;89.93;102799.66;702288;28;966;-62
2021/11/20 00:20:58;;;;;;;8.30;6.03;;;;;;;11.16;90.53;102798.78;702039;28;1165;-62
2021/11/20 00:21:26;;;;;;;10.95;6.03;;;;;;;11.14;90.36;102801.41;702172;28;987;-63
2021/11/20 00:21:51;;;;;;;9.27;5.78;;;;;;;11.11;90.78;102798.84;702176;28;862;-63
2021/11/20 00:22:20;;;;;;;9.48;6.03;;;;;;;11.10;90.65;102798.84;701967;28;1250;-63
2021/11/20 00:22:49;;;;;;;9.68;6.05;;;;;;;11.08;90.59;102800.63;702207;28;819;-63
2021/11/20 00:23:09;;;;;;;8.30;6.00;;;;;;;11.09;90.79;102797.13;702001;28;889;-63
2021/11/20 00:23:34;;;;;;;8.23;6.03;;;;;;;11.12;90.55;102802.38;702173;28;893;-63
2021/11/20 00:23:58;;;;;;;8.20;5.80;;;;;;;11.14;90.60;102795.28;702126;28;831;-63
2021/11/20 00:24:32;;;;;;;8.55;5.78;;;;;;;11.13;90.63;102793.53;702227;28;834;-63
2021/11/20 00:24:56;;;;;;;7.80;6.10;;;;;;;11.11;90.45;102790.03;702003;28;915;-63
2021/11/20 00:25:29;;;;;;;8.07;5.70;;;;;;;11.12;90.45;102789.16;702142;28;923;-62
2021/11/20 00:25:54;;;;;;;9.82;6.10;;;;;;;11.11;90.16;102793.56;702138;28;945;-62
2021/11/20 00:26:19;;;;;;;8.98;5.70;;;;;;;11.10;90.56;102788.31;702235;28;966;-62
2021/11/20 00:26:39;;;;;;;8.18;5.82;;;;;;;11.06;90.54;102787.47;702161;28;957;-62
2021/11/20 00:27:02;;;;;;;9.07;5.70;;;;;;;11.07;90.53;102783.06;701991;28;887;-61
2021/11/20 00:27:34;;;;;;;8.40;5.70;;;;;;;11.12;90.49;102791.81;702290;28;879;-63
2021/11/20 00:27:59;;;;;;;8.85;5.80;;;;;;;11.10;90.34;102790.94;701321;28;891;-62
2021/11/20 00:28:29;;;;;;;9.00;6.07;;;;;;;11.08;90.67;102796.25;701993;28;812;-62
2021/11/20 00:29:21;;;;;;;8.07;5.63;;;;;;;11.12;90.36;102794.44;701953;28;937;-62
2021/11/20 00:30:27;;;;;;;9.23;5.70;;;;;;;11.10;90.32;102789.16;702226;28;677;-63
2021/11/20 00:30:55;;;;;;;9.98;5.80;;;;;;;11.12;90.32;102791.81;702158;28;1393;-63
2021/11/20 00:31:15;;;;;;;10.15;6.30;;;;;;;11.13;90.39;102785.63;702136;28;996;-63
2021/11/20 00:31:42;;;;;;;8.27;6.00;;;;;;;11.12;90.18;102789.16;702141;28;919;-63
2021/11/20 00:32:03;;;;;;;7.38;5.80;;;;;;;11.10;90.24;102786.53;702125;28;1945;-63
2021/11/20 00:32:27;;;;;;;8.70;5.60;;;;;;;11.11;90.46;102790.03;702126;28;1172;-63
2021/11/20 00:33:12;;;;;;;8.82;6.00;;;;;;;11.11;90.08;102784.75;702266;28;922;-63
2021/11/20 00:33:34;;;;;;;8.57;5.85;;;;;;;11.09;89.75;102792.72;702262;28;1017;-63
2021/11/20 00:33:55;;;;;;;8.38;5.72;;;;;;;11.10;89.69;102788.31;702130;28;984;-63
2021/11/20 00:34:18;;;;;;;9.02;5.43;;;;;;;11.10;89.80;102783.88;702161;28;1152;-63
2021/11/20 00:34:40;;;;;;;8.88;5.60;;;;;;;11.10;89.35;102786.53;702253;28;959;-63
2021/11/20 00:35:05;;;;;;;9.02;5.40;;;;;;;11.10;89.49;102788.31;702189;28;1073;-63
2021/11/20 00:35:30;;;;;;;9.48;5.88;;;;;;;11.14;88.93;102785.59;702040;28;886;-63
2021/11/20 00:35:53;;;;;;;10.68;6.30;;;;;;;11.11;88.96;102783.03;701984;28;958;-63
2021/11/20 00:36:14;;;;;;;10.23;5.75;;;;;;;11.10;89.41;102775.97;702119;28;903;-63
2021/11/20 00:36:34;;;;;;;10.52;6.10;;;;;;;11.12;89.15;102791.81;702160;28;891;-62
2021/11/20 00:36:55;;;;;;;10.47;5.70;;;;;;;11.12;88.91;102787.41;702170;28;982;-62
2021/11/20 00:37:19;;;;;;;10.13;5.60;;;;;;;11.11;89.10;102779.47;702132;28;982;-66
2021/11/20 00:37:40;;;;;;;8.07;5.57;;;;;;;11.10;89.34;102777.75;701947;28;882;-63
2021/11/20 00:38:09;;;;;;;8.98;6.18;;;;;;;11.10;89.26;102783.88;701789;28;839;-63
2021/11/20 00:38:30;;;;;;;8.45;5.50;;;;;;;11.12;89.20;102781.25;702184;28;893;-63
2021/11/20 00:38:51;;;;;;;10.15;6.07;;;;;;;11.08;89.42;102785.69;702261;28;1013;-63
2021/11/20 00:39:14;;;;;;;9.70;6.15;;;;;;;11.08;89.26;102784.78;702005;28;1081;-63
2021/11/20 00:39:35;;;;;;;8.30;6.03;;;;;;;11.07;89.29;102785.69;702043;28;878;-63
2021/11/20 00:39:56;;;;;;;9.15;6.32;;;;;;;11.07;89.42;102789.19;702145;28;930;-63
2021/11/20 00:40:28;;;;;;;9.40;6.30;;;;;;;11.12;89.21;102786.53;702131;28;815;-63
2021/11/20 00:40:53;;;;;;;8.93;6.13;;;;;;;11.17;88.64;102788.19;702000;28;2166;-63
2021/11/20 00:41:18;;;;;;;8.27;6.18;;;;;;;11.16;88.65;102781.19;702204;28;802;-63
2021/11/20 00:41:39;;;;;;;9.85;6.28;;;;;;;11.16;88.70;102788.22;702099;28;994;-63
2021/11/20 00:42:02;;;;;;;9.33;6.17;;;;;;;11.16;88.73;102794.38;702096;28;790;-63
2021/11/20 00:42:23;;;;;;;9.00;5.75;;;;;;;11.20;88.10;102784.66;702148;28;1049;-63
2021/11/20 00:42:43;;;;;;;7.03;5.53;;;;;;;11.19;88.05;102798.75;702067;28;784;-62
2021/11/20 00:43:04;;;;;;;8.02;5.57;;;;;;;11.19;87.68;102790.81;702213;28;1041;-63
2021/11/20 00:43:25;;;;;;;9.25;5.53;;;;;;;11.19;87.35;102798.75;702183;28;819;-63
2021/11/20 00:43:47;;;;;;;10.13;5.60;;;;;;;11.17;87.72;102784.69;701941;28;843;-63
2021/11/20 00:44:08;;;;;;;7.95;5.70;;;;;;;11.16;87.72;102782.94;702129;28;969;-63
2021/11/20 00:44:28;;;;;;;8.43;5.50;;;;;;;11.13;87.97;102788.25;702148;28;1049;-63
2021/11/20 00:44:55;;;;;;;8.00;5.43;;;;;;;11.15;87.54;102789.13;701623;28;1396;-63
2021/11/20 00:45:15;;;;;;;7.25;5.63;;;;;;;11.14;87.77;102787.34;702185;28;914;-63
2021/11/20 00:45:39;;;;;;;8.07;5.38;;;;;;;11.12;87.65;102787.41;702096;28;875;-63
2021/11/20 00:45:59;;;;;;;7.97;5.88;;;;;;;11.14;87.62;102792.63;701674;28;1329;-64
2021/11/20 00:46:23;;;;;;;7.72;5.60;;;;;;;11.17;87.71;102790.81;701925;28;796;-63
2021/11/20 00:46:46;;;;;;;8.93;5.70;;;;;;;11.16;87.74;102783.81;701715;28;1952;-63
2021/11/20 00:47:09;;;;;;;8.55;5.47;;;;;;;11.14;87.68;102782.06;701921;28;998;-65
2021/11/20 00:47:29;;;;;;;7.97;5.68;;;;;;;11.15;87.69;102794.41;701827;28;856;-63
2021/11/20 00:47:53;;;;;;;8.88;5.60;;;;;;;11.12;87.49;102782.13;701388;28;875;-63
2021/11/20 00:48:15;;;;;;;8.57;5.47;;;;;;;11.16;87.22;102788.22;701834;28;922;-64
2021/11/20 00:48:36;;;;;;;8.68;5.60;;;;;;;11.18;87.51;102791.69;701829;28;1073;-63
2021/11/20 00:48:58;;;;;;;9.70;5.55;;;;;;;11.19;87.00;102793.47;701922;28;967;-64
2021/11/20 00:49:20;;;;;;;8.65;5.70;;;;;;;11.19;86.96;102787.31;701811;28;1055;-64
2021/11/20 00:49:40;;;;;;;8.15;5.85;;;;;;;11.19;87.31;102784.69;701861;28;1029;-63
2021/11/20 00:50:02;;;;;;;9.03;5.90;;;;;;;11.18;87.24;102783.78;701797;28;1041;-63
2021/11/20 00:50:23;;;;;;;8.13;5.57;;;;;;;11.16;87.49;102778.53;702111;28;827;-62
2021/11/20 00:50:55;;;;;;;8.43;5.60;;;;;;;11.17;87.88;102779.41;702061;28;1325;-63
2021/11/20 00:51:18;;;;;;;8.60;5.80;;;;;;;11.16;87.92;102777.66;702050;28;946;-63
2021/11/20 00:51:39;;;;;;;8.60;6.20;;;;;;;11.16;87.90;102780.31;702104;28;854;-63
2021/11/20 00:51:59;;;;;;;9.13;6.30;;;;;;;11.15;87.88;102770.66;701865;28;1898;-62
2021/11/20 00:52:19;;;;;;;10.50;6.70;;;;;;;11.13;88.17;102778.56;701922;28;953;-64
2021/11/20 00:52:43;;;;;;;10.00;6.90;;;;;;;11.12;88.29;102781.25;702158;28;912;-63
2021/11/20 00:53:04;;;;;;;9.85;6.70;;;;;;;11.12;88.05;102776.84;702095;28;820;-63
2021/11/20 00:53:25;;;;;;;9.77;6.90;;;;;;;11.14;87.58;102780.31;702184;28;788;-63
2021/11/20 00:53:45;;;;;;;9.48;6.75;;;;;;;11.19;87.54;102782.91;702121;28;875;-64
2021/11/20 00:54:06;;;;;;;9.95;6.70;;;;;;;11.19;87.66;102784.69;701696;28;930;-62
2021/11/20 00:54:27;;;;;;;9.43;6.55;;;;;;;11.17;87.57;102782.91;701761;28;836;-63
2021/11/20 00:54:47;;;;;;;8.35;6.70;;;;;;;11.16;87.54;102782.94;701752;28;876;-63
2021/11/20 00:55:12;;;;;;;9.90;6.93;;;;;;;11.17;87.65;102784.69;702003;28;945;-63
2021/11/20 00:55:33;;;;;;;10.38;6.80;;;;;;;11.15;87.73;102781.22;702171;28;836;-63
2021/11/20 00:55:54;;;;;;;8.80;6.43;;;;;;;11.14;87.73;102784.72;702098;28;998;-63
2021/11/20 00:56:19;;;;;;;10.88;7.00;;;;;;;11.13;87.62;102788.25;701933;28;897;-63
2021/11/20 00:56:40;;;;;;;9.95;6.90;;;;;;;11.14;87.48;102784.72;702176;28;887;-63
2021/11/20 00:57:00;;;;;;;9.55;6.75;;;;;;;11.12;87.52;102782.13;701950;28;1229;-63
2021/11/20 00:57:23;;;;;;;9.23;6.67;;;;;;;11.14;87.46;102787.34;702119;28;1106;-63
2021/11/20 00:57:44;;;;;;;10.15;6.50;;;;;;;11.16;87.12;102788.22;701764;28;844;-63
2021/11/20 00:58:05;;;;;;;9.38;6.63;;;;;;;11.14;87.20;102785.59;701506;28;1175;-63
2021/11/20 00:58:26;;;;;;;9.13;6.68;;;;;;;11.15;87.05;102781.22;701879;28;1001;-63
2021/11/20 00:58:47;;;;;;;10.80;6.90;;;;;;;11.14;86.99;102784.72;701806;28;954;-63
2021/11/20 00:59:08;;;;;;;10.40;6.87;;;;;;;11.14;86.87;102785.59;701921;28;856;-62
2021/11/20 00:59:28;;;;;;;11.05;6.90;;;;;;;11.13;87.11;102782.97;701894;28;847;-62
2021/11/20 00:59:49;;;;;;;10.73;7.17;;;;;;;11.11;87.02;102779.47;701883;28;866;-63
2021/11/20 01:00:12;;;;;;;10.57;6.87;;;;;;;11.14;87.25;102787.34;702053;28;1021;-63
2021/11/20 01:00:45;;;;;;;10.40;7.05;;;;;;;11.10;87.32;102778.63;702012;28;1095;-63
2021/11/20 01:01:09;;;;;;;9.57;6.70;;;;;;;11.11;87.23;102780.38;702072;28;2068;-62
2021/11/20 01:01:37;;;;;;;10.20;7.03;;;;;;;11.09;87.12;102779.50;702118;28;968;-63
2021/11/20 01:02:02;;;;;;;11.25;7.28;;;;;;;11.11;87.22;102785.66;702085;28;926;-63
2021/11/20 01:02:22;;;;;;;9.20;6.80;;;;;;;11.10;87.14;102780.38;701609;28;1372;-62
2021/11/20 01:02:43;;;;;;;9.88;6.80;;;;;;;11.10;87.44;102778.63;701762;28;665;-63
2021/11/20 01:03:07;;;;;;;9.98;6.95;;;;;;;11.11;87.43;102782.13;701937;28;863;-63
2021/11/20 01:03:28;;;;;;;9.13;6.90;;;;;;;11.10;87.26;102777.75;701704;28;1013;-63
2021/11/20 01:03:51;;;;;;;9.77;7.07;;;;;;;11.12;87.25;102781.25;701918;28;804;-63
2021/11/20 01:04:12;;;;;;;10.23;6.97;;;;;;;11.12;86.98;102776.84;702012;28;986;-63
2021/11/20 01:04:35;;;;;;;9.80;6.80;;;;;;;11.12;86.38;102778.59;701771;28;1433;-63
2021/11/20 01:04:55;;;;;;;9.43;6.75;;;;;;;11.12;86.48;102775.97;702168;28;867;-63
2021/11/20 01:05:16;;;;;;;8.98;6.75;;;;;;;11.09;86.21;102768.97;702073;28;1316;-63
2021/11/20 01:05:38;;;;;;;10.40;6.80;;;;;;;11.10;86.40;102783.03;701924;28;1041;-63
2021/11/20 01:05:59;;;;;;;10.25;7.03;;;;;;;11.09;86.65;102781.28;702115;28;1100;-62
2021/11/20 01:06:20;;;;;;;10.10;6.90;;;;;;;11.07;86.47;102777.78;702084;28;855;-63
2021/11/20 01:06:44;;;;;;;9.48;6.60;;;;;;;11.07;86.35;102772.50;702069;28;1084;-63
2021/11/20 01:07:06;;;;;;;8.60;6.20;;;;;;;11.08;86.45;102777.78;702109;28;927;-65
2021/11/20 01:07:27;;;;;;;9.25;6.20;;;;;;;11.07;86.14;102772.50;701977;28;983;-63
2021/11/20 01:07:48;;;;;;;8.73;6.00;;;;;;;11.07;86.02;102778.66;701827;28;1075;-63
2021/11/20 01:08:11;;;;;;;8.35;6.00;;;;;;;11.08;85.91;102768.97;702052;28;820;-63
2021/11/20 01:08:36;;;;;;;8.32;5.93;;;;;;;11.09;85.75;102770.72;701991;28;935;-63
2021/11/20 01:08:56;;;;;;;7.93;6.03;;;;;;;11.07;85.45;102770.72;702239;28;1165;-63
2021/11/20 01:09:22;;;;;;;8.23;5.80;;;;;;;11.07;85.17;102768.09;702225;28;894;-64
2021/11/20 01:09:45;;;;;;;8.00;5.35;;;;;;;11.06;84.81;102765.50;702346;28;1422;-64
2021/11/20 01:10:11;;;;;;;8.93;5.53;;;;;;;11.04;85.06;102760.22;702082;28;994;-64
2021/11/20 01:10:35;;;;;;;8.18;4.93;;;;;;;11.04;84.63;102759.34;699206;28;1351;-64
2021/11/20 01:11:15;;;;;;;7.13;5.40;;;;;;;11.04;84.69;102765.50;699249;28;1245;-63
2021/11/20 01:12:03;;;;;;;7.43;4.97;;;;;;;11.05;85.03;102755.84;699401;28;1006;-63
2021/11/20 01:12:26;;;;;;;7.30;5.25;;;;;;;11.06;85.18;102760.22;702158;28;1233;-62
2021/11/20 01:12:47;;;;;;;6.75;5.00;;;;;;;11.05;85.14;102763.75;702543;28;985;-63
2021/11/20 01:13:08;;;;;;;6.60;5.17;;;;;;;11.04;85.35;102757.56;702313;28;982;-63
2021/11/20 01:13:28;;;;;;;7.53;5.20;;;;;;;11.04;85.02;102754.94;702695;28;844;-63
2021/11/20 01:13:51;;;;;;;7.70;5.22;;;;;;;11.06;84.94;102762.84;702413;28;941;-63
2021/11/20 01:14:13;;;;;;;7.15;5.07;;;;;;;11.06;84.78;102760.22;702130;28;877;-63
2021/11/20 01:14:37;;;;;;;7.38;5.03;;;;;;;11.07;84.63;102761.94;702213;28;870;-62
2021/11/20 01:14:59;;;;;;;8.25;5.30;;;;;;;11.06;84.59;102754.94;702027;28;906;-62
2021/11/20 01:15:25;;;;;;;7.15;4.90;;;;;;;11.03;84.62;102755.84;702159;28;828;-63
2021/11/20 01:15:58;;;;;;;7.03;4.93;;;;;;;11.05;85.06;102758.47;701962;28;1014;-63
2021/11/20 01:16:20;;;;;;;6.95;5.03;;;;;;;11.05;84.74;102761.13;702171;28;981;-63
2021/11/20 01:16:42;;;;;;;7.90;5.28;;;;;;;11.05;84.80;102763.75;702154;28;958;-63
2021/11/20 01:17:10;;;;;;;7.72;5.13;;;;;;;11.05;84.90;102756.69;701940;28;982;-63
2021/11/20 01:17:31;;;;;;;7.45;5.32;;;;;;;11.06;85.26;102760.22;702187;28;970;-63
2021/11/20 01:17:52;;;;;;;7.22;5.10;;;;;;;11.05;84.85;102755.84;701595;28;918;-63
2021/11/20 01:18:13;;;;;;;8.15;5.10;;;;;;;11.05;84.79;102754.06;702398;28;829;-63
2021/11/20 01:18:35;;;;;;;7.53;5.00;;;;;;;11.05;84.46;102761.97;702157;28;1430;-63
2021/11/20 01:18:57;;;;;;;7.40;5.30;;;;;;;11.06;84.58;102760.22;702533;28;902;-64
2021/11/20 01:19:17;;;;;;;7.30;5.25;;;;;;;11.08;84.39;102753.13;703079;28;925;-63
2021/11/20 01:19:39;;;;;;;7.90;5.47;;;;;;;11.11;84.39;102763.66;703299;28;914;-63
2021/11/20 01:20:00;;;;;;;8.13;5.45;;;;;;;11.10;84.14;102760.13;703099;28;958;-63
2021/11/20 01:20:27;;;;;;;7.68;5.13;;;;;;;11.11;84.10;102763.66;703385;28;939;-63
2021/11/20 01:20:48;;;;;;;8.63;5.35;;;;;;;11.10;84.37;102759.28;703025;28;1281;-63
2021/11/20 01:21:10;;;;;;;7.97;5.63;;;;;;;11.10;84.08;102757.50;703347;28;1026;-64
2021/11/20 01:21:35;;;;;;;8.38;5.88;;;;;;;11.10;84.08;102762.78;703273;28;883;-63
2021/11/20 01:21:57;;;;;;;7.65;5.03;;;;;;;11.11;84.44;102766.28;703202;28;871;-64
2021/11/20 01:22:21;;;;;;;7.10;5.20;;;;;;;11.11;83.98;102759.28;703084;28;1010;-64
2021/11/20 01:22:41;;;;;;;6.82;4.72;;;;;;;11.11;83.92;102764.53;703045;28;1037;-64
2021/11/20 01:23:02;;;;;;;7.50;5.20;;;;;;;11.11;84.32;102758.38;703362;28;887;-64
2021/11/20 01:23:26;;;;;;;7.75;5.38;;;;;;;11.12;84.34;102766.28;702974;28;1644;-63
2021/11/20 01:23:47;;;;;;;8.15;5.45;;;;;;;11.13;84.17;102756.59;702936;28;966;-63
2021/11/20 01:24:09;;;;;;;7.93;5.43;;;;;;;11.13;84.14;102761.88;702997;28;926;-63
2021/11/20 01:24:33;;;;;;;7.50;5.28;;;;;;;11.11;84.45;102767.19;702200;28;962;-63
2021/11/20 01:24:55;;;;;;;8.20;5.30;;;;;;;11.12;84.24;102770.69;702292;28;1088;-63
2021/11/20 01:25:20;;;;;;;9.40;5.28;;;;;;;11.11;84.35;102756.63;701855;28;1288;-63
2021/11/20 01:25:42;;;;;;;8.30;5.10;;;;;;;11.12;84.51;102760.13;701800;28;950;-63
2021/11/20 01:26:03;;;;;;;7.82;4.95;;;;;;;11.12;84.20;102765.41;701735;28;812;-62
2021/11/20 01:26:24;;;;;;;8.90;5.28;;;;;;;11.10;84.46;102762.78;701704;28;864;-63
2021/11/20 01:26:45;;;;;;;8.63;5.38;;;;;;;11.11;84.54;102753.09;698945;28;905;-63
2021/11/20 01:27:05;;;;;;;7.17;5.13;;;;;;;11.11;84.35;102758.38;699035;28;908;-63
2021/11/20 01:27:26;;;;;;;6.53;5.07;;;;;;;11.11;84.35;102763.66;699351;28;960;-63
2021/11/20 01:27:46;;;;;;;8.20;5.10;;;;;;;11.11;84.70;102763.66;701455;28;906;-63
2021/11/20 01:28:07;;;;;;;8.63;4.93;;;;;;;11.11;84.69;102763.66;701501;28;812;-63
2021/11/20 01:28:33;;;;;;;8.27;4.82;;;;;;;11.10;84.64;102768.06;701802;28;915;-63
2021/11/20 01:28:56;;;;;;;7.25;4.82;;;;;;;11.13;84.81;102748.69;702091;28;859;-63
2021/11/20 01:29:16;;;;;;;7.03;4.80;;;;;;;11.12;84.43;102760.13;701795;28;2219;-63
2021/11/20 01:29:40;;;;;;;7.10;4.80;;;;;;;11.10;84.75;102751.34;702001;28;887;-64
2021/11/20 01:30:00;;;;;;;7.47;4.80;;;;;;;11.11;84.56;102747.81;701909;28;994;-63
2021/11/20 01:30:22;;;;;;;6.78;4.53;;;;;;;11.10;84.64;102754.00;701913;28;954;-63
2021/11/20 01:30:43;;;;;;;7.55;4.70;;;;;;;11.08;84.72;102758.41;702036;28;1409;-63
2021/11/20 01:31:06;;;;;;;7.65;4.90;;;;;;;11.09;84.83;102760.16;701887;28;939;-63
2021/11/20 01:31:29;;;;;;;7.30;4.70;;;;;;;11.08;84.67;102755.75;701965;28;990;-62
2021/11/20 01:31:53;;;;;;;7.18;4.60;;;;;;;11.08;84.78;102758.41;701822;28;861;-63
2021/11/20 01:32:16;;;;;;;7.10;4.53;;;;;;;11.07;84.47;102756.66;703780;28;1898;-62
2021/11/20 01:32:37;;;;;;;6.72;4.50;;;;;;;11.08;84.49;102742.56;701981;28;1088;-63
2021/11/20 01:33:00;;;;;;;6.68;4.90;;;;;;;11.09;84.23;102765.44;702018;28;872;-63
2021/11/20 01:33:21;;;;;;;7.00;4.45;;;;;;;11.09;84.25;102760.16;701941;28;1029;-63
2021/11/20 01:33:43;;;;;;;6.95;4.35;;;;;;;11.11;84.14;102747.81;702007;28;883;-62
2021/11/20 01:34:05;;;;;;;7.70;4.75;;;;;;;11.13;84.09;102751.31;702028;28;900;-63
2021/11/20 01:34:26;;;;;;;8.45;4.47;;;;;;;11.14;84.20;102751.28;701874;28;1017;-64
2021/11/20 01:34:46;;;;;;;6.82;4.57;;;;;;;11.14;84.21;102753.06;701948;28;1037;-64
2021/11/20 01:35:07;;;;;;;7.00;4.70;;;;;;;11.15;84.13;102749.53;702121;28;939;-63
2021/11/20 01:35:28;;;;;;;6.93;4.72;;;;;;;11.12;84.18;102755.72;701992;28;861;-64
2021/11/20 01:35:49;;;;;;;7.18;4.40;;;;;;;11.13;84.11;102757.47;701923;28;926;-63
2021/11/20 01:36:12;;;;;;;7.23;4.40;;;;;;;11.12;84.21;102754.84;701965;28;994;-63
2021/11/20 01:36:35;;;;;;;8.15;4.53;;;;;;;11.14;84.28;102750.41;701934;28;994;-64
2021/11/20 01:36:57;;;;;;;7.88;4.65;;;;;;;11.12;84.54;102749.59;702013;28;894;-64
2021/11/20 01:37:19;;;;;;;7.57;4.43;;;;;;;11.13;84.19;102759.22;701991;28;962;-63
2021/11/20 01:37:41;;;;;;;7.20;4.97;;;;;;;11.10;84.61;102751.34;701862;28;906;-63
2021/11/20 01:38:06;;;;;;;6.60;4.75;;;;;;;11.12;84.08;102760.13;701600;28;1093;-63
2021/11/20 01:38:27;;;;;;;6.35;4.78;;;;;;;11.11;84.04;102754.00;701990;28;946;-63
2021/11/20 01:38:49;;;;;;;7.50;4.80;;;;;;;11.11;84.32;102747.81;701867;28;864;-63
2021/11/20 01:39:14;;;;;;;8.23;4.85;;;;;;;11.10;84.32;102756.63;702068;28;847;-63
2021/11/20 01:39:37;;;;;;;6.57;4.88;;;;;;;11.11;84.32;102763.66;701753;28;1404;-63
2021/11/20 01:39:57;;;;;;;7.07;4.70;;;;;;;11.12;84.13;102754.84;701892;28;1081;-62
2021/11/20 01:40:21;;;;;;;6.80;4.60;;;;;;;11.10;84.20;102751.34;701883;28;982;-63
2021/11/20 01:40:46;;;;;;;6.55;4.53;;;;;;;11.10;84.19;102757.50;701799;28;1354;-63
2021/11/20 01:41:06;;;;;;;7.22;4.68;;;;;;;11.11;84.40;102766.28;701993;28;1069;-63
2021/11/20 01:41:31;;;;;;;6.07;4.47;;;;;;;11.10;84.18;102754.00;701987;28;808;-63
2021/11/20 01:42:03;;;;;;;7.00;4.40;;;;;;;11.15;83.43;102753.03;701897;28;1366;-64
2021/11/20 01:42:31;;;;;;;6.75;4.65;;;;;;;11.14;83.29;102753.06;701783;28;1694;-64
2021/11/20 01:42:51;;;;;;;7.80;4.60;;;;;;;11.14;83.16;102753.06;702034;28;772;-64
2021/11/20 01:43:12;;;;;;;7.93;4.70;;;;;;;11.12;83.24;102758.38;701863;28;974;-64
2021/11/20 01:43:42;;;;;;;7.20;4.67;;;;;;;11.11;83.10;102753.09;702074;28;832;-63
2021/11/20 01:44:31;;;;;;;7.38;4.68;;;;;;;11.11;83.15;102753.09;701834;28;916;-63
2021/11/20 01:44:57;;;;;;;6.72;4.90;;;;;;;11.14;83.03;102753.06;700917;28;1037;-63
2021/11/20 01:45:25;;;;;;;6.15;4.50;;;;;;;11.15;82.50;102746.91;701785;28;1783;-63
2021/11/20 01:45:51;;;;;;;6.57;4.60;;;;;;;11.15;82.55;102744.25;701863;28;891;-63
2021/11/20 01:46:17;;;;;;;6.97;4.78;;;;;;;11.13;82.65;102746.03;701867;28;1073;-63
2021/11/20 01:46:42;;;;;;;6.90;4.70;;;;;;;11.12;82.42;102749.59;701982;28;918;-63
2021/11/20 01:47:16;;;;;;;6.63;4.50;;;;;;;11.11;82.26;102748.72;701910;28;871;-63
2021/11/20 01:47:36;;;;;;;7.13;4.50;;;;;;;11.11;82.10;102745.16;701950;28;1069;-63
2021/11/20 01:48:14;;;;;;;7.40;4.70;;;;;;;11.11;82.01;102747.81;701357;28;869;-63
2021/11/20 01:48:54;;;;;;;7.57;4.35;;;;;;;11.10;82.44;102744.31;701809;28;1212;-62
2021/11/20 01:49:22;;;;;;;6.93;4.68;;;;;;;11.13;81.79;102743.41;702017;28;925;-63
2021/11/20 01:49:50;;;;;;;6.15;4.07;;;;;;;11.14;81.84;102737.22;701889;28;1029;-63
2021/11/20 01:50:16;;;;;;;7.32;4.20;;;;;;;11.11;81.84;102743.44;702017;28;880;-63
2021/11/20 01:50:42;;;;;;;6.00;4.10;;;;;;;11.15;81.40;102741.63;701688;28;1331;-63
2021/11/20 01:51:34;;;;;;;6.88;4.10;;;;;;;11.14;82.18;102742.50;701861;28;1053;-63
2021/11/20 01:52:34;;;;;;;7.65;4.22;;;;;;;11.11;81.70;102742.53;701437;28;1148;-63
2021/11/20 01:53:16;;;;;;;7.10;4.32;;;;;;;11.14;81.41;102737.22;701834;28;862;-63
2021/11/20 01:53:49;;;;;;;6.72;4.18;;;;;;;11.14;81.37;102745.13;701870;28;918;-63
2021/11/20 01:54:15;;;;;;;6.90;4.32;;;;;;;11.14;81.48;102746.00;701929;28;978;-62
2021/11/20 01:55:10;;;;;;;7.55;4.40;;;;;;;11.14;81.48;102740.72;701660;28;1022;-63
2021/11/20 01:55:41;;;;;;;7.32;4.40;;;;;;;11.15;81.15;102744.25;702060;28;975;-63